createdAt,value
2023-12-05T07:32:28.801Z,18.51
2023-12-05T07:33:30.024Z,18.56
2023-12-05T07:34:30.012Z,18.60
2023-12-05T07:35:30.045Z,18.66
2023-12-05T07:36:30.159Z,18.76
2023-12-05T07:37:30.265Z,18.79
2023-12-05T07:38:30.353Z,18.84
2023-12-05T07:39:30.417Z,18.89
2023-12-05T08:15:06.062Z,18.79
2023-12-05T08:16:07.316Z,18.82
2023-12-05T08:17:07.182Z,18.87
2023-12-05T08:18:07.365Z,18.96
2023-12-05T08:19:07.384Z,19.05
2023-12-05T08:20:07.434Z,19.10
2023-12-05T08:21:07.442Z,19.17
2023-12-05T08:22:07.504Z,19.24
2023-12-05T08:23:07.494Z,19.28
2023-12-05T08:24:07.635Z,19.30
2023-12-05T08:25:07.613Z,19.35
2023-12-05T08:26:07.757Z,19.39
2023-12-05T08:27:07.734Z,19.43
2023-12-05T08:28:07.810Z,19.43
2023-12-05T08:29:07.774Z,19.45
2023-12-05T08:30:07.898Z,19.47
2023-12-05T08:31:07.907Z,19.49
2023-12-05T08:32:07.923Z,19.50
2023-12-05T08:33:08.002Z,19.53
2023-12-05T08:34:08.165Z,19.52
2023-12-05T08:35:08.222Z,19.55
2023-12-05T08:36:08.075Z,19.55
2023-12-05T08:37:08.058Z,19.58
2023-12-05T08:38:08.086Z,19.58
2023-12-05T08:39:08.094Z,19.57
2023-12-05T08:40:08.210Z,19.60
2023-12-05T08:41:08.221Z,19.61
2023-12-05T08:42:08.290Z,19.60
2023-12-05T08:43:08.358Z,19.61
2023-12-05T08:44:08.315Z,19.62
2023-12-05T08:45:08.377Z,19.61
2023-12-05T08:46:09.904Z,19.60
2023-12-05T08:47:08.446Z,19.62
2023-12-05T08:48:08.479Z,19.62
2023-12-05T08:49:08.546Z,19.62
2023-12-05T08:50:08.532Z,19.62
2023-12-05T08:51:08.555Z,19.65
2023-12-05T08:52:08.530Z,19.65
2023-12-05T08:53:08.601Z,19.67
2023-12-05T08:54:08.610Z,19.62
2023-12-05T08:55:08.645Z,19.67
2023-12-05T08:56:08.713Z,19.67
2023-12-05T08:57:08.653Z,19.67
2023-12-05T08:58:08.761Z,19.65
2023-12-05T12:08:20.286Z,20.26
2023-12-05T12:09:21.291Z,20.22
2023-12-05T12:10:21.281Z,20.22
2023-12-05T12:11:21.413Z,20.23
2023-12-05T12:12:21.701Z,20.25
2023-12-05T12:13:21.688Z,20.27
2023-12-05T12:14:21.799Z,20.31
2023-12-05T12:15:21.810Z,20.33
2023-12-05T12:16:21.950Z,20.34
2023-12-05T12:17:22.566Z,20.35
2023-12-05T12:18:22.331Z,20.38
2023-12-05T12:19:22.256Z,20.40
2023-12-05T12:20:22.221Z,20.42
2023-12-05T12:21:22.316Z,20.42
2023-12-05T12:22:22.362Z,20.50
2023-12-05T12:23:22.549Z,20.53
2023-12-05T12:24:22.570Z,20.54
2023-12-05T12:25:22.618Z,20.57
2023-12-05T12:26:22.637Z,20.58
2023-12-05T12:27:22.826Z,20.58
2023-12-05T12:28:22.805Z,20.61
2023-12-05T12:29:22.908Z,20.63
2023-12-05T12:30:23.012Z,20.63
2023-12-05T12:31:22.996Z,20.63
2023-12-05T12:32:23.070Z,20.66
2023-12-05T12:33:23.282Z,20.71
2023-12-05T12:34:23.250Z,20.73
2023-12-05T12:35:23.327Z,20.73
2023-12-05T12:36:23.490Z,20.76
2023-12-05T12:37:23.861Z,20.81
2023-12-05T12:38:23.562Z,20.82
2023-12-05T12:39:23.718Z,20.81
2023-12-05T12:40:23.842Z,20.85
2023-12-05T12:41:23.754Z,20.87
2023-12-05T12:42:23.925Z,20.51
2023-12-05T12:43:23.922Z,19.98
2023-12-05T12:44:24.082Z,19.25
2023-12-05T12:45:24.093Z,16.23
2023-12-05T12:46:24.158Z,14.24
2023-12-05T12:47:24.201Z,12.74
2023-12-05T12:48:24.536Z,11.44
2023-12-05T12:49:24.515Z,10.17
2023-12-05T12:50:24.538Z,9.24
2023-12-05T12:51:24.607Z,8.54
2023-12-05T12:52:24.705Z,7.95
2023-12-05T12:53:24.802Z,7.55
2023-12-05T12:54:24.943Z,7.26
2023-12-05T12:55:24.935Z,6.94
2023-12-05T12:56:25.046Z,6.60
2023-12-05T12:57:25.223Z,6.19
2023-12-05T12:58:25.354Z,5.92
2023-12-05T12:59:25.425Z,5.66
2023-12-05T13:00:32.470Z,5.48
2023-12-05T13:01:25.716Z,5.26
2023-12-05T13:02:25.782Z,5.14
2023-12-05T13:03:25.937Z,5.01
2023-12-05T13:04:28.109Z,4.84
2023-12-05T13:05:26.150Z,4.77
2023-12-05T13:06:26.350Z,4.65
2023-12-05T13:07:26.461Z,4.43
2023-12-05T13:08:26.619Z,4.25
2023-12-05T13:09:26.781Z,4.13
2023-12-05T13:10:26.857Z,4.06
2023-12-05T13:11:26.967Z,3.81
2023-12-05T13:12:27.232Z,3.53
2023-12-05T13:13:27.329Z,3.30
2023-12-05T13:14:27.493Z,3.10
2023-12-05T13:15:27.666Z,3.01
2023-12-05T13:16:27.796Z,2.94
2023-12-05T13:17:27.949Z,2.81
2023-12-05T13:18:28.193Z,2.74
2023-12-05T13:19:28.469Z,2.79
2023-12-05T13:20:28.408Z,2.87
2023-12-05T13:21:28.658Z,2.86
2023-12-05T13:51:23.207Z,1.82
2023-12-05T13:52:21.689Z,1.71
2023-12-05T13:53:21.674Z,1.64
2023-12-05T13:54:21.719Z,1.60
2023-12-05T13:55:21.864Z,1.63
2023-12-05T13:56:21.898Z,1.67
2023-12-05T13:57:22.661Z,1.71
2023-12-05T13:58:22.027Z,1.74
2023-12-05T13:59:22.040Z,1.82
2023-12-05T14:00:22.153Z,2.04
2023-12-05T14:01:22.245Z,2.11
2023-12-05T14:02:22.284Z,2.33
2023-12-05T14:03:25.043Z,2.37
2023-12-05T14:04:22.496Z,2.37
2023-12-05T14:05:22.655Z,2.40
2023-12-05T14:06:22.655Z,2.41
2023-12-05T14:07:22.670Z,2.38
2023-12-05T14:08:22.624Z,2.37
2023-12-05T14:09:25.282Z,2.19
2023-12-05T14:10:22.764Z,2.12
2023-12-05T14:11:22.903Z,2.15
2023-12-05T14:12:22.969Z,2.22
2023-12-05T14:13:23.056Z,2.18
2023-12-05T14:14:23.067Z,2.11
2023-12-05T14:15:25.859Z,1.93
2023-12-05T14:16:23.240Z,1.79
2023-12-05T14:17:23.350Z,1.65
2023-12-05T14:18:23.405Z,1.57
2023-12-05T14:19:23.465Z,1.50
2023-12-05T14:20:23.428Z,1.46
2023-12-05T14:21:23.587Z,1.31
2023-12-05T14:22:23.677Z,1.18
2023-12-05T14:23:23.812Z,1.07
2023-12-05T14:24:23.749Z,0.93
2023-12-05T14:25:23.882Z,0.82
2023-12-05T14:26:23.940Z,0.84
2023-12-05T14:27:26.043Z,0.82
2023-12-05T14:28:24.109Z,0.77
2023-12-05T14:29:24.212Z,0.70
2023-12-05T14:30:24.223Z,0.67
2023-12-05T14:31:24.372Z,0.70
2023-12-05T14:32:24.383Z,0.72
2023-12-05T14:33:24.518Z,0.75
2023-12-05T14:34:24.589Z,0.75
2023-12-05T14:35:24.627Z,0.78
2023-12-05T14:36:24.714Z,0.81
2023-12-05T14:37:24.773Z,0.84
2023-12-05T14:38:24.784Z,0.88
2023-12-05T14:39:25.073Z,0.90
2023-12-05T14:40:24.998Z,0.89
2023-12-05T14:41:25.165Z,0.89
2023-12-05T14:42:25.326Z,0.90
2023-12-05T14:43:25.337Z,0.95
2023-12-05T14:44:25.348Z,0.95
2023-12-05T14:45:26.646Z,0.93
2023-12-05T14:46:25.659Z,0.89
2023-12-05T14:47:25.671Z,0.86
2023-12-05T14:48:25.793Z,0.88
2023-12-05T14:49:25.876Z,0.86
2023-12-05T14:50:25.822Z,0.86
2023-12-05T14:51:27.285Z,0.82
2023-12-05T14:52:26.120Z,0.84
2023-12-05T14:53:26.131Z,0.77
2023-12-05T14:54:26.230Z,0.74
2023-12-05T14:55:26.319Z,0.70
2023-12-05T14:56:26.405Z,0.70
2023-12-05T14:57:27.096Z,0.70
2023-12-05T14:58:26.543Z,0.68
2023-12-05T14:59:26.686Z,0.68
2023-12-05T15:00:26.731Z,0.71
2023-12-05T15:01:26.908Z,0.71
2023-12-05T15:02:26.945Z,0.70
2023-12-05T15:03:27.072Z,0.67
2023-12-05T15:04:27.151Z,0.62
2023-12-05T15:05:27.192Z,0.60
2023-12-05T15:06:27.359Z,0.60
2023-12-05T15:07:27.401Z,0.62
2023-12-05T15:08:27.437Z,0.57
2023-12-05T15:09:27.606Z,0.57
2023-12-05T15:10:27.636Z,0.56
2023-12-05T15:11:27.816Z,0.52
2023-12-05T15:12:27.912Z,0.52
2023-12-05T15:13:27.939Z,0.48
2023-12-05T15:14:27.987Z,0.45
2023-12-05T15:15:28.153Z,0.40
2023-12-05T15:16:28.198Z,0.35
2023-12-05T15:17:28.381Z,0.37
2023-12-05T15:18:28.435Z,0.30
2023-12-05T15:19:28.602Z,0.28
2023-12-05T15:20:28.717Z,0.26
2023-12-05T15:21:30.033Z,0.26
2023-12-05T15:22:28.824Z,0.28
2023-12-05T15:23:28.885Z,0.31
2023-12-05T15:24:28.966Z,0.31
2023-12-05T15:25:29.078Z,0.30
2023-12-05T15:26:29.149Z,0.30
2023-12-05T15:27:29.296Z,0.28
2023-12-05T15:28:29.491Z,0.25
2023-12-05T15:29:36.457Z,0.26
2023-12-05T15:30:29.525Z,0.25
2023-12-05T15:31:29.663Z,0.23
2023-12-05T15:32:29.742Z,0.25
2023-12-05T15:33:29.934Z,0.23
2023-12-05T15:34:30.004Z,0.22
2023-12-05T15:35:30.047Z,0.20
2023-12-05T15:36:30.210Z,0.17
2023-12-05T15:37:30.278Z,0.16
2023-12-05T15:38:30.574Z,0.13
2023-12-05T15:39:30.423Z,0.12
2023-12-05T15:40:30.466Z,0.05
2023-12-05T15:41:30.620Z,0.07
2023-12-05T15:42:30.778Z,0.05
2023-12-05T15:43:30.847Z,0.05
2023-12-05T15:44:31.180Z,0.04
2023-12-05T15:45:31.017Z,0.01
2023-12-05T15:46:31.112Z,0.07
2023-12-05T15:47:31.292Z,0.01
2023-12-05T15:48:43.807Z,0.02
2023-12-05T15:49:31.469Z,-0.01
2023-12-05T15:50:31.635Z,0.02
2023-12-05T15:51:31.708Z,0.01
2023-12-05T15:52:31.803Z,0.02
2023-12-05T15:53:31.771Z,-0.01
2023-12-05T15:54:31.969Z,-0.02
2023-12-05T15:55:31.976Z,-0.09
2023-12-05T15:56:32.181Z,-0.05
2023-12-05T15:57:32.264Z,0.23
2023-12-05T15:58:32.258Z,1.53
2023-12-05T15:59:32.449Z,3.25
2023-12-05T16:00:32.596Z,6.24
2023-12-05T16:01:32.849Z,7.55
2023-12-05T16:02:32.778Z,8.28
2023-12-05T16:03:32.982Z,8.91
2023-12-05T16:04:32.860Z,9.27
2023-12-05T16:05:33.159Z,9.63
2023-12-05T16:06:33.230Z,10.25
2023-12-05T16:07:33.246Z,11.02
2023-12-05T16:08:33.253Z,11.75
2023-12-05T16:09:33.630Z,12.38
2023-12-05T16:10:33.427Z,12.96
2023-12-05T16:11:33.599Z,13.47
2023-12-05T16:12:33.671Z,13.88
2023-12-05T16:13:33.722Z,14.27
2023-12-05T16:14:33.753Z,14.66
2023-12-05T16:15:33.833Z,14.98
2023-12-05T16:16:33.923Z,15.25
2023-12-05T16:17:34.039Z,15.49
2023-12-05T16:18:34.020Z,15.73
2023-12-05T16:19:34.062Z,15.92
2023-12-05T16:20:34.040Z,16.11
2023-12-05T16:21:34.263Z,16.27
2023-12-05T16:22:34.159Z,16.45
2023-12-05T16:23:34.217Z,16.55
2023-12-05T16:24:34.247Z,16.70
2023-12-05T16:25:34.301Z,16.80
2023-12-05T16:26:34.375Z,16.91
2023-12-05T16:27:34.403Z,17.00
2023-12-05T16:28:35.847Z,17.09
2023-12-05T16:29:34.381Z,17.17
2023-12-05T16:30:34.496Z,17.24
2023-12-05T16:31:34.469Z,17.32
2023-12-05T16:32:34.557Z,17.38
2023-12-05T16:33:34.547Z,17.43
2023-12-05T16:34:34.645Z,17.49
2023-12-05T16:35:34.540Z,17.54
2023-12-05T16:36:34.599Z,17.58
2023-12-05T16:37:34.640Z,17.62
2023-12-05T16:38:34.628Z,17.63
2023-12-05T16:39:34.665Z,17.71
2023-12-05T16:40:34.602Z,17.71
2023-12-05T16:41:34.692Z,17.74
2023-12-05T16:42:34.709Z,17.77
2023-12-05T16:43:34.699Z,17.80
2023-12-05T16:44:34.687Z,17.83
2023-12-05T16:45:34.795Z,17.87
2023-12-05T16:46:34.768Z,17.89
2023-12-05T16:47:34.813Z,17.87
2023-12-05T16:48:34.807Z,17.87
2023-12-05T16:49:34.839Z,17.86
2023-12-05T16:50:34.780Z,17.86
2023-12-05T16:51:34.779Z,17.86
2023-12-05T16:52:34.870Z,17.86
2023-12-05T16:53:34.770Z,17.83
2023-12-05T16:54:34.893Z,17.84
2023-12-05T16:55:34.761Z,17.84
2023-12-05T16:56:34.785Z,17.84
2023-12-05T16:57:34.830Z,17.84
2023-12-05T16:58:34.814Z,17.84
2023-12-05T16:59:35.612Z,17.87
2023-12-05T17:00:34.904Z,17.87
2023-12-05T17:01:34.916Z,17.92
2023-12-05T17:02:34.804Z,17.94
2023-12-05T17:03:34.849Z,17.96
2023-12-05T17:04:34.849Z,17.96
2023-12-05T17:05:34.696Z,17.98
2023-12-05T17:06:34.785Z,17.99
2023-12-05T17:07:34.700Z,18.01
2023-12-05T17:08:34.721Z,18.04
2023-12-05T17:09:34.729Z,18.04
2023-12-05T17:10:34.702Z,18.05
2023-12-05T17:11:34.611Z,18.07
2023-12-05T17:12:34.670Z,18.09
2023-12-05T17:13:34.582Z,18.10
2023-12-05T17:14:34.603Z,18.14
2023-12-05T17:15:36.278Z,18.14
2023-12-05T17:16:34.625Z,18.16
2023-12-05T17:17:34.690Z,18.14
2023-12-05T17:18:34.620Z,18.20
2023-12-05T17:19:34.622Z,18.20
2023-12-05T17:20:34.523Z,18.20
2023-12-05T17:21:34.558Z,18.21
2023-12-05T17:22:34.519Z,18.25
2023-12-05T17:23:34.427Z,18.23
2023-12-05T17:24:34.426Z,18.26
2023-12-05T17:25:34.366Z,18.26
2023-12-05T17:26:34.373Z,18.28
2023-12-05T17:27:34.364Z,18.29
2023-12-05T17:28:34.403Z,18.29
2023-12-05T17:29:34.300Z,18.29
2023-12-05T17:30:35.311Z,18.32
2023-12-05T17:31:34.229Z,18.31
2023-12-05T17:32:34.277Z,18.32
2023-12-05T17:33:34.323Z,18.32
2023-12-05T17:34:34.384Z,18.32
2023-12-05T17:35:34.136Z,18.34
2023-12-05T17:36:34.227Z,18.32
2023-12-05T17:37:34.139Z,18.32
2023-12-05T17:38:34.134Z,18.34
2023-12-05T17:39:34.144Z,18.35
2023-12-05T17:40:34.142Z,18.34
2023-12-05T17:41:34.077Z,18.38
2023-12-05T17:42:34.149Z,18.36
2023-12-05T17:43:34.043Z,18.36
2023-12-05T17:44:34.035Z,18.34
2023-12-05T17:45:34.056Z,18.36
2023-12-05T17:46:34.041Z,18.39
2023-12-05T17:47:33.907Z,18.39
2023-12-05T17:48:33.985Z,18.39
2023-12-05T17:49:34.041Z,18.41
2023-12-05T17:50:33.818Z,18.42
2023-12-05T17:51:33.927Z,18.44
2023-12-05T17:52:33.821Z,18.44
2023-12-05T17:53:33.814Z,18.42
2023-12-05T17:54:33.804Z,18.42
2023-12-05T17:55:33.747Z,18.44
2023-12-05T17:56:33.655Z,18.47
2023-12-05T17:57:33.762Z,18.44
2023-12-05T17:58:33.652Z,18.47
2023-12-05T17:59:35.296Z,18.49
2023-12-05T18:00:33.571Z,18.51
2023-12-05T18:01:34.190Z,18.51
2023-12-05T18:02:36.282Z,18.50
2023-12-05T18:03:33.654Z,18.53
2023-12-05T18:04:34.199Z,18.53
2023-12-05T18:05:33.420Z,18.53
2023-12-05T18:06:33.351Z,18.53
2023-12-05T18:07:53.485Z,18.53
2023-12-05T18:08:33.302Z,18.54
2023-12-05T18:09:33.581Z,18.53
2023-12-05T18:10:33.255Z,18.56
2023-12-05T18:11:33.209Z,18.54
2023-12-05T18:12:33.439Z,18.54
2023-12-05T18:13:33.184Z,18.59
2023-12-05T18:14:33.159Z,18.59
2023-12-05T18:15:33.560Z,18.56
2023-12-05T18:16:33.039Z,18.60
2023-12-05T18:17:33.531Z,18.65
2023-12-05T18:18:33.576Z,18.65
2023-12-05T18:19:33.037Z,18.66
2023-12-05T18:20:32.942Z,18.66
2023-12-05T18:21:32.918Z,18.69
2023-12-05T18:22:33.099Z,18.71
2023-12-05T18:23:32.818Z,18.74
2023-12-05T18:24:33.541Z,18.75
2023-12-05T18:25:33.488Z,18.79
2023-12-05T18:26:32.766Z,18.79
2023-12-05T18:27:32.809Z,18.82
2023-12-05T18:28:33.104Z,18.79
2023-12-05T18:29:33.513Z,18.83
2023-12-05T18:30:32.658Z,18.83
2023-12-05T18:31:33.504Z,18.84
2023-12-05T18:32:33.564Z,18.83
2023-12-05T18:33:32.670Z,18.84
2023-12-05T18:34:32.630Z,18.86
2023-12-05T18:35:33.004Z,18.86
2023-12-05T18:36:32.549Z,18.87
2023-12-05T18:37:32.382Z,18.89
2023-12-05T18:38:32.382Z,18.91
2023-12-05T18:39:32.373Z,18.90
2023-12-05T18:40:32.378Z,18.87
2023-12-05T18:41:32.277Z,18.90
2023-12-05T18:42:32.323Z,18.89
2023-12-05T18:43:34.063Z,18.91
2023-12-05T18:44:33.026Z,18.91
2023-12-05T18:45:32.201Z,18.94
2023-12-05T18:46:32.535Z,18.93
2023-12-05T18:47:32.148Z,18.94
2023-12-05T18:48:32.138Z,18.94
2023-12-05T18:49:32.179Z,18.96
2023-12-05T18:50:32.030Z,18.94
2023-12-05T18:51:32.113Z,18.96
2023-12-05T18:52:32.098Z,18.96
2023-12-05T18:53:32.544Z,18.94
2023-12-05T18:54:32.034Z,18.96
2023-12-05T18:55:32.564Z,18.96
2023-12-05T18:56:32.520Z,18.94
2023-12-05T18:57:32.177Z,18.96
2023-12-05T18:58:31.864Z,18.94
2023-12-05T18:59:31.794Z,18.94
2023-12-05T19:00:31.787Z,18.96
2023-12-05T19:01:31.803Z,18.94
2023-12-05T19:02:31.780Z,18.94
2023-12-05T19:03:31.728Z,18.96
2023-12-05T19:04:31.645Z,18.96
2023-12-05T19:05:31.688Z,18.93
2023-12-05T19:06:33.436Z,18.96
2023-12-05T19:07:31.516Z,18.96
2023-12-05T19:08:31.523Z,18.97
2023-12-05T19:09:31.520Z,18.94
2023-12-05T19:10:31.443Z,18.94
2023-12-05T19:11:31.426Z,18.96
2023-12-05T19:12:31.388Z,18.91
2023-12-05T19:13:31.345Z,18.94
2023-12-05T19:14:31.280Z,18.93
2023-12-05T19:15:31.376Z,18.91
2023-12-05T19:16:32.371Z,18.91
2023-12-05T19:17:31.256Z,18.90
2023-12-05T19:18:31.321Z,18.91
2023-12-05T19:19:31.275Z,18.91
2023-12-05T19:20:31.115Z,18.90
2023-12-05T19:21:31.187Z,18.90
2023-12-05T19:22:31.100Z,18.90
2023-12-05T19:23:31.560Z,18.91
2023-12-05T19:24:31.042Z,18.91
2023-12-05T19:25:30.943Z,18.93
2023-12-05T19:26:30.968Z,18.91
2023-12-05T19:27:30.985Z,18.94
2023-12-05T19:28:34.125Z,18.90
2023-12-05T19:29:30.840Z,18.91
2023-12-05T19:30:30.940Z,18.93
2023-12-05T19:31:30.907Z,18.94
2023-12-05T19:32:30.689Z,18.93
2023-12-05T19:33:30.752Z,18.96
2023-12-05T19:34:40.218Z,18.94
2023-12-05T19:35:30.706Z,18.96
2023-12-05T19:36:30.616Z,18.96
2023-12-05T19:37:30.596Z,18.94
2023-12-05T19:38:30.529Z,18.96
2023-12-05T19:39:30.533Z,18.96
2023-12-05T19:40:30.605Z,18.91
2023-12-05T19:41:30.459Z,18.96
2023-12-05T19:42:30.399Z,18.97
2023-12-05T19:43:30.368Z,18.97
2023-12-05T19:44:30.347Z,18.97
2023-12-05T19:45:30.680Z,18.96
2023-12-05T19:46:30.278Z,19.01
2023-12-05T19:47:31.166Z,18.99
2023-12-05T19:48:30.299Z,19.01
2023-12-05T19:49:30.292Z,18.99
2023-12-05T19:50:30.601Z,19.01
2023-12-05T19:51:30.184Z,19.01
2023-12-05T19:52:30.199Z,19.01
2023-12-05T19:53:29.966Z,19.01
2023-12-05T19:54:29.916Z,19.01
2023-12-05T19:55:29.933Z,19.06
2023-12-05T19:56:29.835Z,19.05
2023-12-05T19:57:29.890Z,19.07
2023-12-05T19:58:29.803Z,19.07
2023-12-05T19:59:31.354Z,19.09
2023-12-05T20:00:29.781Z,19.10
2023-12-05T20:01:29.722Z,19.13
2023-12-05T20:02:29.682Z,19.10
2023-12-05T20:03:29.750Z,19.13
2023-12-05T20:04:29.719Z,19.12
2023-12-05T20:05:29.571Z,19.12
2023-12-05T20:06:29.498Z,19.07
2023-12-05T20:07:29.487Z,19.05
2023-12-05T20:08:29.434Z,19.01
2023-12-05T20:09:29.567Z,19.02
2023-12-05T20:10:29.509Z,19.01
2023-12-05T20:11:29.320Z,18.99
2023-12-05T20:12:29.344Z,18.97
2023-12-05T20:13:29.243Z,18.96
2023-12-05T20:14:29.163Z,18.96
2023-12-05T20:15:29.224Z,18.93
2023-12-05T20:16:29.118Z,18.90
2023-12-05T20:17:29.726Z,18.89
2023-12-05T20:18:29.165Z,18.89
2023-12-05T20:19:29.056Z,18.87
2023-12-05T20:20:29.006Z,18.84
2023-12-05T20:21:29.033Z,18.84
2023-12-05T20:22:28.937Z,18.83
2023-12-05T20:23:28.839Z,18.79
2023-12-05T20:24:28.885Z,18.78
2023-12-05T20:25:28.766Z,18.78
2023-12-05T20:26:28.758Z,18.78
2023-12-05T20:27:28.761Z,18.78
2023-12-05T20:28:28.713Z,18.75
2023-12-05T20:29:28.622Z,18.75
2023-12-05T20:30:28.682Z,18.76
2023-12-05T20:31:28.523Z,18.74
2023-12-05T20:32:28.532Z,18.72
2023-12-05T20:33:28.610Z,18.75
2023-12-05T20:34:28.616Z,18.72
2023-12-05T20:35:28.389Z,18.74
2023-12-05T20:36:28.346Z,18.72
2023-12-05T20:37:28.306Z,18.71
2023-12-05T20:38:28.294Z,18.72
2023-12-05T20:39:28.287Z,18.71
2023-12-05T20:40:28.234Z,18.72
2023-12-05T20:41:28.122Z,18.71
2023-12-05T20:42:28.394Z,18.74
2023-12-05T20:43:28.038Z,18.72
2023-12-05T20:44:28.057Z,18.71
2023-12-05T20:45:28.002Z,18.68
2023-12-05T20:46:27.994Z,18.69
2023-12-05T20:47:27.962Z,18.69
2023-12-05T20:48:27.981Z,18.68
2023-12-05T20:49:28.040Z,18.71
2023-12-05T20:50:27.848Z,18.68
2023-12-05T20:51:27.897Z,18.69
2023-12-05T20:52:27.842Z,18.71
2023-12-05T20:53:27.766Z,18.72
2023-12-05T20:54:27.705Z,18.71
2023-12-05T20:55:27.724Z,18.71
2023-12-05T20:56:27.646Z,18.75
2023-12-05T20:57:27.715Z,18.74
2023-12-05T20:58:27.599Z,18.75
2023-12-05T20:59:27.579Z,18.75
2023-12-05T21:00:27.589Z,18.74
2023-12-05T21:01:27.533Z,18.75
2023-12-05T21:02:27.434Z,18.75
2023-12-05T21:03:27.488Z,18.78
2023-12-05T21:04:27.461Z,18.78
2023-12-05T21:05:27.317Z,18.78
2023-12-05T21:06:27.239Z,18.76
2023-12-05T21:07:29.521Z,18.78
2023-12-05T21:09:08.677Z,18.78
2023-12-05T21:09:27.184Z,18.78
2023-12-05T21:10:27.120Z,18.82
2023-12-05T21:11:27.091Z,18.79
2023-12-05T21:12:27.000Z,18.83
2023-12-05T21:13:27.006Z,18.79
2023-12-05T21:14:26.921Z,18.79
2023-12-05T21:15:26.940Z,18.83
2023-12-05T21:16:26.921Z,18.79
2023-12-05T21:17:27.003Z,18.83
2023-12-05T21:18:26.965Z,18.83
2023-12-05T21:19:26.853Z,18.83
2023-12-05T21:20:26.785Z,18.83
2023-12-05T21:21:26.744Z,18.84
2023-12-05T21:22:26.758Z,18.83
2023-12-05T21:23:26.666Z,18.84
2023-12-05T21:24:26.602Z,18.86
2023-12-05T21:25:26.781Z,18.84
2023-12-05T21:26:26.533Z,18.84
2023-12-05T21:27:26.535Z,18.84
2023-12-05T21:28:26.511Z,18.84
2023-12-05T21:29:27.053Z,18.84
2023-12-05T21:30:27.928Z,18.87
2023-12-05T21:31:26.362Z,18.84
2023-12-05T21:32:26.281Z,18.86
2023-12-05T21:33:26.318Z,18.83
2023-12-05T21:34:26.328Z,18.82
2023-12-05T21:35:26.202Z,18.83
2023-12-05T21:36:26.119Z,18.84
2023-12-05T21:37:26.231Z,18.87
2023-12-05T21:38:26.040Z,18.86
2023-12-05T21:39:26.075Z,18.86
2023-12-05T21:40:25.999Z,18.86
2023-12-05T21:41:25.985Z,18.87
2023-12-05T21:42:26.629Z,18.89
2023-12-05T21:43:26.599Z,18.89
2023-12-05T21:44:26.276Z,18.90
2023-12-05T21:45:25.910Z,18.93
2023-12-05T21:46:25.882Z,18.94
2023-12-05T21:47:25.813Z,18.93
2023-12-05T21:48:25.966Z,18.94
2023-12-05T21:49:25.787Z,18.93
2023-12-05T21:50:27.262Z,18.93
2023-12-05T21:51:26.995Z,18.94
2023-12-05T21:52:25.738Z,18.96
2023-12-05T21:53:25.666Z,18.93
2023-12-05T21:54:28.344Z,18.96
2023-12-05T21:55:25.681Z,18.94
2023-12-05T21:56:25.586Z,18.94
2023-12-05T21:57:25.659Z,18.97
2023-12-05T21:58:25.572Z,18.97
2023-12-05T21:59:25.512Z,18.96
2023-12-05T22:00:25.919Z,18.96
2023-12-05T22:01:25.612Z,18.96
2023-12-05T22:02:25.416Z,18.96
2023-12-05T22:03:25.424Z,18.96
2023-12-05T22:04:25.511Z,18.94
2023-12-05T22:05:27.006Z,18.96
2023-12-05T22:06:26.109Z,18.96
2023-12-05T22:07:26.355Z,18.96
2023-12-05T22:08:26.858Z,18.96
2023-12-05T22:09:25.220Z,18.97
2023-12-05T22:10:25.217Z,18.99
2023-12-05T22:11:25.961Z,19.01
2023-12-05T22:12:28.440Z,19.01
2023-12-05T22:13:25.101Z,19.02
2023-12-05T22:14:25.036Z,19.01
2023-12-05T22:15:25.062Z,19.01
2023-12-05T22:16:25.019Z,19.01
2023-12-05T22:17:24.930Z,18.99
2023-12-05T22:18:24.947Z,19.01
2023-12-05T22:19:24.965Z,19.02
2023-12-05T22:20:24.810Z,19.01
2023-12-05T22:21:26.048Z,19.01
2023-12-05T22:22:24.797Z,18.99
2023-12-05T22:23:25.749Z,18.97
2023-12-05T22:24:29.946Z,18.97
2023-12-05T22:25:24.722Z,18.94
2023-12-05T22:26:24.659Z,18.94
2023-12-05T22:27:24.698Z,18.94
2023-12-05T22:28:24.628Z,18.97
2023-12-05T22:29:25.023Z,18.94
2023-12-05T22:30:24.642Z,18.97
2023-12-05T22:31:24.750Z,18.96
2023-12-05T22:32:24.532Z,18.96
2023-12-05T22:33:24.718Z,18.94
2023-12-05T22:34:24.576Z,18.96
2023-12-05T22:35:24.428Z,18.96
2023-12-05T22:36:25.112Z,18.96
2023-12-05T22:37:25.931Z,18.94
2023-12-05T22:38:25.173Z,18.94
2023-12-05T22:39:24.324Z,18.99
2023-12-05T22:40:24.355Z,18.97
2023-12-05T22:41:24.213Z,18.94
2023-12-05T22:42:24.206Z,18.96
2023-12-05T22:43:24.136Z,18.97
2023-12-05T22:44:24.151Z,18.96
2023-12-05T22:45:24.091Z,18.97
2023-12-05T22:46:24.133Z,18.97
2023-12-05T22:47:23.997Z,19.01
2023-12-05T22:48:24.022Z,18.99
2023-12-05T22:49:23.994Z,18.99
2023-12-05T22:50:23.919Z,18.99
2023-12-05T22:51:23.945Z,18.97
2023-12-05T22:52:23.972Z,19.01
2023-12-05T22:53:23.812Z,19.01
2023-12-05T22:54:23.849Z,19.05
2023-12-05T22:55:23.775Z,19.02
2023-12-05T22:56:23.743Z,19.01
2023-12-05T22:57:23.990Z,19.02
2023-12-05T22:58:23.745Z,19.01
2023-12-05T22:59:23.645Z,19.02
2023-12-05T23:00:23.586Z,19.01
2023-12-05T23:01:23.589Z,19.01
2023-12-05T23:02:23.556Z,18.99
2023-12-05T23:03:23.576Z,19.01
2023-12-05T23:04:23.499Z,19.01
2023-12-05T23:05:23.449Z,19.01
2023-12-05T23:06:23.427Z,19.01
2023-12-05T23:07:23.321Z,19.02
2023-12-05T23:08:23.327Z,19.01
2023-12-05T23:09:23.320Z,18.99
2023-12-05T23:10:23.314Z,18.99
2023-12-05T23:11:23.180Z,18.99
2023-12-05T23:12:23.174Z,19.01
2023-12-05T23:13:23.101Z,18.99
2023-12-05T23:14:23.116Z,18.97
2023-12-05T23:15:23.077Z,18.99
2023-12-05T23:16:23.091Z,18.97
2023-12-05T23:17:23.308Z,18.97
2023-12-05T23:18:22.995Z,18.96
2023-12-05T23:19:23.010Z,18.97
2023-12-05T23:20:22.919Z,18.96
2023-12-05T23:21:22.893Z,18.97
2023-12-05T23:22:22.853Z,18.96
2023-12-05T23:23:22.760Z,18.94
2023-12-05T23:24:22.774Z,18.94
2023-12-05T23:25:22.708Z,18.97
2023-12-05T23:26:22.692Z,18.94
2023-12-05T23:27:22.880Z,18.93
2023-12-05T23:28:25.712Z,18.90
2023-12-05T23:29:22.572Z,18.93
2023-12-05T23:30:22.545Z,18.93
2023-12-05T23:31:22.601Z,18.93
2023-12-05T23:32:22.584Z,18.91
2023-12-05T23:33:22.619Z,18.89
2023-12-05T23:34:22.583Z,18.90
2023-12-05T23:35:22.453Z,18.89
2023-12-05T23:36:22.355Z,18.90
2023-12-05T23:37:22.886Z,18.89
2023-12-05T23:38:22.336Z,18.87
2023-12-05T23:39:22.348Z,18.89
2023-12-05T23:40:22.275Z,18.89
2023-12-05T23:41:22.267Z,18.87
2023-12-05T23:42:22.204Z,18.86
2023-12-05T23:43:22.204Z,18.87
2023-12-05T23:44:22.117Z,18.86
2023-12-05T23:45:22.192Z,18.86
2023-12-05T23:46:22.069Z,18.87
2023-12-05T23:47:24.651Z,18.83
2023-12-05T23:48:22.010Z,18.87
2023-12-05T23:49:22.004Z,18.84
2023-12-05T23:50:21.873Z,18.83
2023-12-05T23:51:21.970Z,18.83
2023-12-05T23:52:21.836Z,18.84
2023-12-05T23:53:21.811Z,18.84
2023-12-05T23:54:21.736Z,18.87
2023-12-05T23:55:21.716Z,18.86
2023-12-05T23:56:21.675Z,18.87
2023-12-05T23:57:21.991Z,18.87
2023-12-05T23:58:21.638Z,18.87
2023-12-05T23:59:21.596Z,18.87
